VLO6022 SBEG-SBPL
Flight info
| Callsign | VLO6022 |
|---|---|
| Flight time | 2h 50m |
| Altitude | FL370 |
| Route | SIGEP UP527 EDPUS UZ41 PAFIM UM654 OPMET UZ84 REBAM |
| Aircraft | B703/H-VRDW/C |
Departure
| Time | 2026-05-06 21:27 |
|---|---|
| Airport | Eduardo Gomes International Airport (SBEG) |
Arrival
| Time | 2026-05-07 00:17 |
|---|---|
| Airport | Senador Nilo Coelho Airport (SBPL) |
| Time | Latitude | Longitude | Altitude | Speed | Heading |
|---|---|---|---|---|---|
| 2026-05-06 21:06 | -3.03241 | -60.04411 | 243 ft | 0 kts | 346° |
| 2026-05-06 21:17 | -3.03270 | -60.04404 | 242 ft | 6 kts | 346° |
| 2026-05-06 21:18 | -3.03300 | -60.04387 | 241 ft | 1 kts | 299° |
| 2026-05-06 21:18 | -3.03302 | -60.04385 | 241 ft | 1 kts | 299° |
| 2026-05-06 21:18 | -3.03309 | -60.04364 | 240 ft | 5 kts | 259° |
| 2026-05-06 21:18 | -3.03307 | -60.04354 | 241 ft | 0 kts | 259° |
| 2026-05-06 21:21 | -3.03308 | -60.04358 | 241 ft | 3 kts | 257° |
| 2026-05-06 21:22 | -3.03339 | -60.04391 | 240 ft | 11 kts | 194° |
| 2026-05-06 21:22 | -3.03429 | -60.04361 | 238 ft | 14 kts | 159° |
| 2026-05-06 21:22 | -3.03509 | -60.04317 | 237 ft | 13 kts | 139° |
| 2026-05-06 21:22 | -3.03568 | -60.04247 | 238 ft | 14 kts | 120° |
| 2026-05-06 21:23 | -3.03600 | -60.04156 | 238 ft | 14 kts | 104° |
| 2026-05-06 21:23 | -3.03627 | -60.04055 | 238 ft | 15 kts | 105° |
| 2026-05-06 21:23 | -3.03657 | -60.03949 | 238 ft | 16 kts | 106° |
| 2026-05-06 21:23 | -3.03687 | -60.03836 | 238 ft | 17 kts | 105° |
| 2026-05-06 21:24 | -3.03743 | -60.03770 | 239 ft | 7 kts | 158° |
| 2026-05-06 21:24 | -3.03746 | -60.03769 | 239 ft | 0 kts | 161° |
| 2026-05-06 21:24 | -3.03750 | -60.03768 | 239 ft | 2 kts | 164° |
| 2026-05-06 21:25 | -3.03774 | -60.03764 | 240 ft | 5 kts | 180° |
| 2026-05-06 21:25 | -3.03818 | -60.03766 | 242 ft | 7 kts | 182° |
| 2026-05-06 21:25 | -3.03861 | -60.03790 | 244 ft | 9 kts | 254° |
| 2026-05-06 21:25 | -3.03862 | -60.03840 | 245 ft | 4 kts | 268° |
| 2026-05-06 21:26 | -3.03863 | -60.03852 | 245 ft | 7 kts | 268° |
| 2026-05-06 21:26 | -3.03862 | -60.04163 | 246 ft | 83 kts | 269° |
| 2026-05-06 21:26 | -3.03860 | -60.04994 | 243 ft | 155 kts | 269° |
| 2026-05-06 21:26 | -3.03876 | -60.06208 | 477 ft | 179 kts | 257° |
| 2026-05-06 21:27 | -3.04485 | -60.07269 | 940 ft | 181 kts | 217° |
| 2026-05-06 21:27 | -3.05660 | -60.07681 | 1438 ft | 185 kts | 179° |
| 2026-05-06 21:27 | -3.06880 | -60.07230 | 1942 ft | 193 kts | 140° |
| 2026-05-06 21:27 | -3.07589 | -60.06087 | 2446 ft | 200 kts | 107° |
| 2026-05-06 21:28 | -3.07895 | -60.04732 | 2945 ft | 201 kts | 104° |
| 2026-05-06 21:28 | -3.08173 | -60.03359 | 3445 ft | 203 kts | 103° |
| 2026-05-06 21:28 | -3.08450 | -60.01985 | 3943 ft | 204 kts | 103° |
| 2026-05-06 21:28 | -3.08732 | -60.00586 | 4446 ft | 205 kts | 103° |
| 2026-05-06 21:29 | -3.09020 | -59.99159 | 4838 ft | 221 kts | 103° |
| 2026-05-06 21:29 | -3.09347 | -59.97554 | 5126 ft | 249 kts | 103° |
| 2026-05-06 21:29 | -3.09709 | -59.95766 | 5402 ft | 273 kts | 103° |
| 2026-05-06 21:29 | -3.10088 | -59.93889 | 5842 ft | 279 kts | 103° |
| 2026-05-06 21:30 | -3.10473 | -59.91980 | 6343 ft | 282 kts | 103° |
| 2026-05-06 21:30 | -3.10860 | -59.90060 | 6843 ft | 284 kts | 103° |
| 2026-05-06 21:30 | -3.11249 | -59.88126 | 7343 ft | 286 kts | 103° |
| 2026-05-06 21:30 | -3.11642 | -59.86176 | 7844 ft | 287 kts | 103° |
| 2026-05-06 21:31 | -3.12039 | -59.84200 | 8348 ft | 289 kts | 103° |
| 2026-05-06 21:31 | -3.12436 | -59.82228 | 8847 ft | 291 kts | 103° |
| 2026-05-06 21:31 | -3.12836 | -59.80242 | 9347 ft | 293 kts | 103° |
| 2026-05-06 21:31 | -3.13239 | -59.78241 | 9847 ft | 295 kts | 103° |
| 2026-05-06 21:32 | -3.13644 | -59.76229 | 10347 ft | 297 kts | 103° |
| 2026-05-06 21:32 | -3.14479 | -59.72083 | 11361 ft | 317 kts | 103° |
| 2026-05-06 21:32 | -3.14926 | -59.69865 | 11875 ft | 330 kts | 103° |
| 2026-05-06 21:33 | -3.15387 | -59.67576 | 12385 ft | 343 kts | 102° |
| 2026-05-06 21:33 | -3.15865 | -59.65206 | 12944 ft | 354 kts | 102° |
| 2026-05-06 21:33 | -3.16354 | -59.62774 | 13573 ft | 362 kts | 102° |
| 2026-05-06 21:33 | -3.16855 | -59.60288 | 14202 ft | 368 kts | 102° |
| 2026-05-06 21:34 | -3.17359 | -59.57781 | 14827 ft | 371 kts | 102° |
| 2026-05-06 21:34 | -3.17868 | -59.55246 | 15453 ft | 374 kts | 102° |
| 2026-05-06 21:34 | -3.18385 | -59.52675 | 16083 ft | 377 kts | 102° |
| 2026-05-06 21:34 | -3.18902 | -59.50101 | 16708 ft | 381 kts | 102° |
| 2026-05-06 21:35 | -3.19424 | -59.47506 | 17332 ft | 384 kts | 102° |
| 2026-05-06 21:35 | -3.19951 | -59.44881 | 17958 ft | 387 kts | 102° |
| 2026-05-06 21:35 | -3.20481 | -59.42242 | 18583 ft | 391 kts | 102° |
| 2026-05-06 21:35 | -3.21017 | -59.39574 | 19209 ft | 394 kts | 102° |
| 2026-05-06 21:36 | -3.21557 | -59.36885 | 19834 ft | 397 kts | 102° |
| 2026-05-06 21:36 | -3.22105 | -59.34154 | 20463 ft | 400 kts | 102° |
| 2026-05-06 21:36 | -3.22652 | -59.31433 | 21087 ft | 402 kts | 102° |
| 2026-05-06 21:36 | -3.23201 | -59.28696 | 21711 ft | 405 kts | 102° |
| 2026-05-06 21:37 | -3.23761 | -59.25911 | 22341 ft | 415 kts | 102° |
| 2026-05-06 21:37 | -3.24334 | -59.23059 | 22972 ft | 424 kts | 102° |
| 2026-05-06 21:37 | -3.24916 | -59.20158 | 23600 ft | 431 kts | 102° |
| 2026-05-06 21:37 | -3.25506 | -59.17217 | 24226 ft | 436 kts | 102° |
| 2026-05-06 21:38 | -3.26110 | -59.14210 | 24857 ft | 441 kts | 102° |
| 2026-05-06 21:38 | -3.26715 | -59.11197 | 25390 ft | 447 kts | 102° |
| 2026-05-06 21:38 | -3.27327 | -59.08147 | 25891 ft | 452 kts | 102° |
| 2026-05-06 21:38 | -3.27946 | -59.05060 | 26393 ft | 455 kts | 102° |
| 2026-05-06 21:39 | -3.28570 | -59.01955 | 26893 ft | 458 kts | 102° |
| 2026-05-06 21:39 | -3.29195 | -58.98846 | 27390 ft | 460 kts | 102° |
| 2026-05-06 21:39 | -3.29824 | -58.95717 | 27889 ft | 461 kts | 102° |
| 2026-05-06 21:39 | -3.30459 | -58.92557 | 28391 ft | 461 kts | 102° |
| 2026-05-06 21:40 | -3.31086 | -58.89435 | 28887 ft | 460 kts | 102° |
| 2026-05-06 21:40 | -3.31712 | -58.86318 | 29383 ft | 458 kts | 102° |
| 2026-05-06 21:40 | -3.32334 | -58.83219 | 29878 ft | 455 kts | 102° |
| 2026-05-06 21:40 | -3.32952 | -58.80142 | 30372 ft | 452 kts | 102° |
| 2026-05-06 21:41 | -3.33565 | -58.77088 | 30866 ft | 448 kts | 102° |
| 2026-05-06 21:41 | -3.34176 | -58.74045 | 31256 ft | 448 kts | 102° |
| 2026-05-06 21:41 | -3.34793 | -58.70969 | 31511 ft | 451 kts | 102° |
| 2026-05-06 21:41 | -3.35410 | -58.67898 | 31761 ft | 453 kts | 102° |
| 2026-05-06 21:42 | -3.36027 | -58.64820 | 32011 ft | 455 kts | 102° |
| 2026-05-06 21:42 | -3.36650 | -58.61719 | 32261 ft | 457 kts | 102° |
| 2026-05-06 21:42 | -3.37273 | -58.58615 | 32511 ft | 458 kts | 102° |
| 2026-05-06 21:42 | -3.37898 | -58.55498 | 32760 ft | 460 kts | 102° |
| 2026-05-06 21:43 | -3.38525 | -58.52371 | 33010 ft | 461 kts | 102° |
| 2026-05-06 21:43 | -3.39157 | -58.49218 | 33261 ft | 462 kts | 102° |
| 2026-05-06 21:43 | -3.39787 | -58.46078 | 33510 ft | 462 kts | 102° |
| 2026-05-06 21:43 | -3.40417 | -58.42935 | 33759 ft | 463 kts | 102° |
| 2026-05-06 21:44 | -3.41048 | -58.39788 | 34008 ft | 464 kts | 102° |
| 2026-05-06 21:44 | -3.41679 | -58.36635 | 34257 ft | 464 kts | 102° |
| 2026-05-06 21:44 | -3.42310 | -58.33487 | 34505 ft | 464 kts | 102° |
| 2026-05-06 21:44 | -3.42942 | -58.30332 | 34754 ft | 464 kts | 102° |
| 2026-05-06 21:45 | -3.43577 | -58.27162 | 35003 ft | 464 kts | 102° |
| 2026-05-06 21:45 | -3.44209 | -58.24007 | 35252 ft | 464 kts | 102° |
| 2026-05-06 21:45 | -3.44841 | -58.20851 | 35500 ft | 462 kts | 102° |
| 2026-05-06 21:45 | -3.45470 | -58.17706 | 35614 ft | 465 kts | 102° |
| 2026-05-06 21:46 | -3.46745 | -58.11341 | 35681 ft | 474 kts | 102° |
| 2026-05-06 21:46 | -3.48050 | -58.04825 | 35746 ft | 481 kts | 102° |
| 2026-05-06 21:47 | -3.49364 | -57.98259 | 35809 ft | 487 kts | 102° |
| 2026-05-06 21:47 | -3.50693 | -57.91616 | 35872 ft | 491 kts | 102° |
| 2026-05-06 21:48 | -3.52031 | -57.84925 | 35998 ft | 492 kts | 102° |
| 2026-05-06 21:48 | -3.52704 | -57.81561 | 36109 ft | 492 kts | 102° |
| 2026-05-06 21:48 | -3.53373 | -57.78210 | 36197 ft | 492 kts | 102° |
| 2026-05-06 21:49 | -3.54041 | -57.74871 | 36299 ft | 492 kts | 102° |
| 2026-05-06 21:49 | -3.54709 | -57.71528 | 36389 ft | 493 kts | 102° |
| 2026-05-06 21:49 | -3.55379 | -57.68177 | 36500 ft | 492 kts | 102° |
| 2026-05-06 21:49 | -3.56048 | -57.64824 | 36613 ft | 492 kts | 102° |
| 2026-05-06 21:50 | -3.56713 | -57.61497 | 36727 ft | 492 kts | 102° |
| 2026-05-06 21:50 | -3.57386 | -57.58132 | 36843 ft | 492 kts | 102° |
| 2026-05-06 21:50 | -3.58053 | -57.54791 | 36958 ft | 491 kts | 102° |
| 2026-05-06 21:50 | -3.58720 | -57.51454 | 37072 ft | 491 kts | 102° |
| 2026-05-06 21:51 | -3.59387 | -57.48115 | 37186 ft | 491 kts | 102° |
| 2026-05-06 21:51 | -3.60054 | -57.44779 | 37299 ft | 491 kts | 102° |
| 2026-05-06 21:51 | -3.60719 | -57.41450 | 37412 ft | 491 kts | 102° |
| 2026-05-06 21:51 | -3.61386 | -57.38113 | 37524 ft | 490 kts | 102° |
| 2026-05-06 21:52 | -3.62057 | -57.34760 | 37636 ft | 490 kts | 102° |
| 2026-05-06 21:52 | -3.62718 | -57.31437 | 37745 ft | 490 kts | 102° |
| 2026-05-06 21:52 | -3.63377 | -57.28110 | 37853 ft | 490 kts | 102° |
| 2026-05-06 21:52 | -3.64035 | -57.24783 | 37960 ft | 489 kts | 102° |
| 2026-05-06 21:53 | -3.64694 | -57.21453 | 38065 ft | 489 kts | 102° |
| 2026-05-06 21:53 | -3.65349 | -57.18137 | 38207 ft | 488 kts | 102° |
| 2026-05-06 21:53 | -3.66004 | -57.14822 | 38315 ft | 488 kts | 102° |
| 2026-05-06 21:53 | -3.66664 | -57.11486 | 38414 ft | 488 kts | 102° |
| 2026-05-06 21:54 | -3.67973 | -57.04858 | 38611 ft | 487 kts | 102° |
| 2026-05-06 21:54 | -3.69280 | -56.98238 | 38745 ft | 488 kts | 102° |
| 2026-05-06 21:55 | -3.70594 | -56.91583 | 38747 ft | 491 kts | 102° |
| 2026-05-06 21:55 | -3.71920 | -56.84864 | 38744 ft | 494 kts | 102° |
| 2026-05-06 21:56 | -3.73247 | -56.78141 | 38741 ft | 495 kts | 102° |
| 2026-05-06 21:56 | -3.74578 | -56.71392 | 38738 ft | 497 kts | 102° |
| 2026-05-06 21:57 | -3.75916 | -56.64604 | 38735 ft | 498 kts | 102° |
| 2026-05-06 21:57 | -3.77251 | -56.57831 | 38733 ft | 498 kts | 102° |
| 2026-05-06 21:58 | -3.78585 | -56.51058 | 38730 ft | 499 kts | 102° |
| 2026-05-06 21:58 | -3.79922 | -56.44270 | 38727 ft | 499 kts | 102° |
| 2026-05-06 21:59 | -3.81264 | -56.37452 | 38724 ft | 500 kts | 102° |
| 2026-05-06 21:59 | -3.82602 | -56.30654 | 38722 ft | 500 kts | 102° |
| 2026-05-06 22:00 | -3.83939 | -56.23856 | 38720 ft | 500 kts | 102° |
| 2026-05-06 22:00 | -3.85280 | -56.17038 | 38717 ft | 500 kts | 102° |
| 2026-05-06 22:01 | -3.86617 | -56.10237 | 38715 ft | 500 kts | 102° |
| 2026-05-06 22:01 | -3.87954 | -56.03432 | 38714 ft | 500 kts | 102° |
| 2026-05-06 22:02 | -3.89291 | -55.96629 | 38713 ft | 500 kts | 102° |
| 2026-05-06 22:02 | -3.90634 | -55.89795 | 38712 ft | 500 kts | 102° |
| 2026-05-06 22:03 | -3.91969 | -55.82994 | 38712 ft | 500 kts | 102° |
| 2026-05-06 22:03 | -3.93306 | -55.76184 | 38713 ft | 500 kts | 102° |
| 2026-05-06 22:04 | -3.94646 | -55.69358 | 38713 ft | 500 kts | 102° |
| 2026-05-06 22:04 | -3.95983 | -55.62549 | 38715 ft | 500 kts | 102° |
| 2026-05-06 22:05 | -3.97318 | -55.55747 | 38716 ft | 500 kts | 102° |
| 2026-05-06 22:05 | -3.98655 | -55.48936 | 38717 ft | 500 kts | 102° |
| 2026-05-06 22:06 | -3.99995 | -55.42111 | 38719 ft | 500 kts | 102° |
| 2026-05-06 22:06 | -4.01334 | -55.35300 | 38720 ft | 500 kts | 102° |
| 2026-05-06 22:07 | -4.02674 | -55.28500 | 38722 ft | 501 kts | 102° |
| 2026-05-06 22:07 | -4.04023 | -55.21658 | 38723 ft | 501 kts | 102° |
| 2026-05-06 22:08 | -4.05364 | -55.14855 | 38725 ft | 501 kts | 102° |
| 2026-05-06 22:08 | -4.06704 | -55.08052 | 38726 ft | 501 kts | 102° |
| 2026-05-06 22:09 | -4.08046 | -55.01241 | 38727 ft | 501 kts | 102° |
| 2026-05-06 22:09 | -4.09392 | -54.94408 | 38729 ft | 501 kts | 102° |
| 2026-05-06 22:10 | -4.10732 | -54.87604 | 38730 ft | 501 kts | 102° |
| 2026-05-06 22:10 | -4.12073 | -54.80793 | 38731 ft | 501 kts | 102° |
| 2026-05-06 22:11 | -4.13418 | -54.73960 | 38732 ft | 501 kts | 102° |
| 2026-05-06 22:11 | -4.14760 | -54.67143 | 38733 ft | 501 kts | 102° |
| 2026-05-06 22:12 | -4.16101 | -54.60336 | 38735 ft | 501 kts | 102° |
| 2026-05-06 22:12 | -4.17443 | -54.53523 | 38736 ft | 501 kts | 102° |
| 2026-05-06 22:13 | -4.18772 | -54.46681 | 38737 ft | 501 kts | 102° |
| 2026-05-06 22:13 | -4.20082 | -54.39864 | 38738 ft | 501 kts | 102° |
| 2026-05-06 22:14 | -4.21390 | -54.33047 | 38739 ft | 501 kts | 102° |
| 2026-05-06 22:14 | -4.22705 | -54.26196 | 38740 ft | 501 kts | 102° |
| 2026-05-06 22:15 | -4.24014 | -54.19372 | 38740 ft | 501 kts | 102° |
| 2026-05-06 22:15 | -4.25320 | -54.12558 | 38741 ft | 501 kts | 102° |
| 2026-05-06 22:16 | -4.26628 | -54.05735 | 38742 ft | 501 kts | 102° |
| 2026-05-06 22:16 | -4.27942 | -53.98880 | 38743 ft | 501 kts | 102° |
| 2026-05-06 22:17 | -4.29247 | -53.92069 | 38796 ft | 500 kts | 102° |
| 2026-05-06 22:17 | -4.30552 | -53.85261 | 38805 ft | 500 kts | 102° |
| 2026-05-06 22:18 | -4.31866 | -53.78405 | 38807 ft | 501 kts | 102° |
| 2026-05-06 22:18 | -4.33172 | -53.71592 | 38809 ft | 501 kts | 102° |
| 2026-05-06 22:19 | -4.34478 | -53.64783 | 38873 ft | 500 kts | 102° |
| 2026-05-06 22:19 | -4.35775 | -53.57999 | 38881 ft | 500 kts | 102° |
| 2026-05-06 22:20 | -4.37082 | -53.51136 | 38881 ft | 501 kts | 102° |
| 2026-05-06 22:20 | -4.38381 | -53.44309 | 38881 ft | 501 kts | 102° |
| 2026-05-06 22:21 | -4.39678 | -53.37491 | 38881 ft | 501 kts | 102° |
| 2026-05-06 22:21 | -4.40982 | -53.30634 | 38881 ft | 501 kts | 102° |
| 2026-05-06 22:22 | -4.42283 | -53.23792 | 38881 ft | 502 kts | 102° |
| 2026-05-06 22:22 | -4.43579 | -53.16972 | 38881 ft | 502 kts | 102° |
| 2026-05-06 22:23 | -4.44880 | -53.10126 | 38881 ft | 502 kts | 102° |
| 2026-05-06 22:23 | -4.46182 | -53.03274 | 38881 ft | 502 kts | 102° |
| 2026-05-06 22:24 | -4.47482 | -52.96434 | 38881 ft | 502 kts | 102° |
| 2026-05-06 22:24 | -4.48781 | -52.89599 | 38881 ft | 502 kts | 102° |
| 2026-05-06 22:25 | -4.50087 | -52.82735 | 38881 ft | 502 kts | 102° |
| 2026-05-06 22:25 | -4.51388 | -52.75899 | 38881 ft | 502 kts | 102° |
| 2026-05-06 22:26 | -4.52688 | -52.69062 | 38881 ft | 502 kts | 102° |
| 2026-05-06 22:26 | -4.53989 | -52.62216 | 38881 ft | 502 kts | 102° |
| 2026-05-06 22:27 | -4.55295 | -52.55346 | 38881 ft | 502 kts | 102° |
| 2026-05-06 22:27 | -4.56594 | -52.48510 | 38881 ft | 502 kts | 101° |
| 2026-05-06 22:28 | -4.57892 | -52.41673 | 38881 ft | 502 kts | 101° |
| 2026-05-06 22:28 | -4.59197 | -52.34803 | 38881 ft | 502 kts | 101° |
| 2026-05-06 22:29 | -4.60495 | -52.27962 | 38881 ft | 502 kts | 101° |
| 2026-05-06 22:29 | -4.61794 | -52.21120 | 38881 ft | 502 kts | 101° |
| 2026-05-06 22:30 | -4.63092 | -52.14282 | 38881 ft | 502 kts | 101° |
| 2026-05-06 22:30 | -4.64396 | -52.07413 | 38881 ft | 502 kts | 101° |
| 2026-05-06 22:31 | -4.65697 | -52.00566 | 38881 ft | 502 kts | 102° |
| 2026-05-06 22:31 | -4.66999 | -51.93726 | 38881 ft | 502 kts | 102° |
| 2026-05-06 22:32 | -4.68310 | -51.86859 | 38881 ft | 502 kts | 102° |
| 2026-05-06 22:32 | -4.69615 | -51.80016 | 38881 ft | 502 kts | 102° |
| 2026-05-06 22:33 | -4.70920 | -51.73173 | 38881 ft | 502 kts | 102° |
| 2026-05-06 22:33 | -4.72225 | -51.66325 | 38881 ft | 502 kts | 102° |
| 2026-05-06 22:34 | -4.73534 | -51.59454 | 38881 ft | 502 kts | 102° |
| 2026-05-06 22:34 | -4.74838 | -51.52610 | 38881 ft | 502 kts | 102° |
| 2026-05-06 22:35 | -4.76141 | -51.45769 | 38881 ft | 502 kts | 102° |
| 2026-05-06 22:35 | -4.77450 | -51.38899 | 38881 ft | 502 kts | 102° |
| 2026-05-06 22:36 | -4.78754 | -51.32049 | 38881 ft | 502 kts | 102° |
| 2026-05-06 22:36 | -4.80057 | -51.25205 | 38881 ft | 502 kts | 102° |
| 2026-05-06 22:37 | -4.81362 | -51.18355 | 38881 ft | 502 kts | 102° |
| 2026-05-06 22:37 | -4.82671 | -51.11485 | 38881 ft | 502 kts | 101° |
| 2026-05-06 22:38 | -4.83958 | -51.04650 | 38881 ft | 502 kts | 101° |
| 2026-05-06 22:38 | -4.85246 | -50.97783 | 38881 ft | 502 kts | 101° |
| 2026-05-06 22:39 | -4.86535 | -50.90906 | 38881 ft | 502 kts | 101° |
| 2026-05-06 22:39 | -4.87820 | -50.84052 | 38881 ft | 503 kts | 101° |
| 2026-05-06 22:40 | -4.89105 | -50.77195 | 38881 ft | 503 kts | 101° |
| 2026-05-06 22:40 | -4.90389 | -50.70341 | 38881 ft | 503 kts | 101° |
| 2026-05-06 22:41 | -4.92318 | -50.60041 | 38881 ft | 503 kts | 101° |
| 2026-05-06 22:42 | -4.93603 | -50.53183 | 38881 ft | 503 kts | 101° |
| 2026-05-06 22:42 | -4.94887 | -50.46328 | 38881 ft | 503 kts | 101° |
| 2026-05-06 22:43 | -4.96150 | -50.39601 | 38881 ft | 503 kts | 101° |
| 2026-05-06 22:43 | -4.97428 | -50.32827 | 38881 ft | 503 kts | 101° |
| 2026-05-06 22:44 | -4.98429 | -50.27522 | 38881 ft | 503 kts | 101° |
| 2026-05-06 22:44 | -5.00019 | -50.19097 | 38862 ft | 503 kts | 101° |
| 2026-05-06 22:44 | -5.00667 | -50.15656 | 38739 ft | 505 kts | 101° |
| 2026-05-06 22:45 | -5.01319 | -50.12201 | 38616 ft | 507 kts | 101° |
| 2026-05-06 22:45 | -5.02622 | -50.05284 | 38527 ft | 507 kts | 101° |
| 2026-05-06 22:46 | -5.03922 | -49.98381 | 38526 ft | 505 kts | 101° |
| 2026-05-06 22:46 | -5.05221 | -49.91480 | 38525 ft | 504 kts | 101° |
| 2026-05-06 22:47 | -5.06514 | -49.84611 | 38525 ft | 503 kts | 101° |
| 2026-05-06 22:47 | -5.07805 | -49.77747 | 38524 ft | 503 kts | 101° |
| 2026-05-06 22:48 | -5.09099 | -49.70864 | 38524 ft | 502 kts | 101° |
| 2026-05-06 22:48 | -5.10385 | -49.64019 | 38524 ft | 502 kts | 101° |
| 2026-05-06 22:49 | -5.11671 | -49.57171 | 38524 ft | 502 kts | 101° |
| 2026-05-06 22:49 | -5.12956 | -49.50325 | 38524 ft | 502 kts | 101° |
| 2026-05-06 22:50 | -5.14246 | -49.43449 | 38525 ft | 502 kts | 101° |
| 2026-05-06 22:50 | -5.15530 | -49.36604 | 38525 ft | 502 kts | 101° |
| 2026-05-06 22:51 | -5.16813 | -49.29761 | 38526 ft | 502 kts | 101° |
| 2026-05-06 22:51 | -5.18102 | -49.22888 | 38526 ft | 502 kts | 101° |
| 2026-05-06 22:52 | -5.19383 | -49.16048 | 38527 ft | 502 kts | 101° |
| 2026-05-06 22:52 | -5.20666 | -49.09201 | 38528 ft | 502 kts | 101° |
| 2026-05-06 22:53 | -5.21948 | -49.02356 | 38529 ft | 502 kts | 101° |
| 2026-05-06 22:53 | -5.23235 | -48.95479 | 38530 ft | 502 kts | 101° |
| 2026-05-06 22:54 | -5.24517 | -48.88633 | 38531 ft | 502 kts | 101° |
| 2026-05-06 22:54 | -5.25798 | -48.81793 | 38532 ft | 502 kts | 101° |
| 2026-05-06 22:55 | -5.27085 | -48.74922 | 38533 ft | 502 kts | 101° |
| 2026-05-06 22:55 | -5.28364 | -48.68073 | 38534 ft | 502 kts | 101° |
| 2026-05-06 22:56 | -5.29614 | -48.61214 | 38535 ft | 502 kts | 101° |
| 2026-05-06 22:56 | -5.30858 | -48.54357 | 38536 ft | 502 kts | 101° |
| 2026-05-06 22:57 | -5.32107 | -48.47477 | 38537 ft | 502 kts | 101° |
| 2026-05-06 22:57 | -5.33363 | -48.40625 | 38538 ft | 502 kts | 101° |
| 2026-05-06 22:58 | -5.34628 | -48.33775 | 38539 ft | 502 kts | 101° |
| 2026-05-06 22:58 | -5.35902 | -48.26883 | 38541 ft | 502 kts | 101° |
| 2026-05-06 22:58 | -5.36530 | -48.23478 | 38646 ft | 500 kts | 101° |
| 2026-05-06 22:59 | -5.37160 | -48.20066 | 38769 ft | 498 kts | 101° |
| 2026-05-06 22:59 | -5.37786 | -48.16675 | 38892 ft | 497 kts | 101° |
| 2026-05-06 22:59 | -5.38411 | -48.13291 | 39011 ft | 495 kts | 101° |
| 2026-05-06 23:00 | -5.39660 | -48.06518 | 39074 ft | 497 kts | 101° |
| 2026-05-06 23:00 | -5.40919 | -47.99695 | 39094 ft | 499 kts | 101° |
| 2026-05-06 23:01 | -5.42176 | -47.92878 | 39114 ft | 500 kts | 101° |
| 2026-05-06 23:01 | -5.43437 | -47.86041 | 39134 ft | 501 kts | 101° |
| 2026-05-06 23:02 | -5.44702 | -47.79173 | 39168 ft | 501 kts | 101° |
| 2026-05-06 23:02 | -5.45962 | -47.72336 | 39264 ft | 501 kts | 101° |
| 2026-05-06 23:03 | -5.47222 | -47.65496 | 39268 ft | 502 kts | 101° |
| 2026-05-06 23:03 | -5.48486 | -47.58636 | 39270 ft | 503 kts | 101° |
| 2026-05-06 23:04 | -5.49758 | -47.51740 | 39272 ft | 503 kts | 101° |
| 2026-05-06 23:04 | -5.51025 | -47.44854 | 39274 ft | 504 kts | 101° |
| 2026-05-06 23:05 | -5.52280 | -47.37974 | 39274 ft | 504 kts | 101° |
| 2026-05-06 23:05 | -5.53542 | -47.31045 | 39271 ft | 504 kts | 101° |
| 2026-05-06 23:06 | -5.54795 | -47.24162 | 39269 ft | 505 kts | 101° |
| 2026-05-06 23:06 | -5.56049 | -47.17269 | 39267 ft | 505 kts | 101° |
| 2026-05-06 23:07 | -5.57305 | -47.10362 | 39265 ft | 505 kts | 101° |
| 2026-05-06 23:07 | -5.58564 | -47.03441 | 39263 ft | 505 kts | 101° |
| 2026-05-06 23:08 | -5.59822 | -46.96519 | 39262 ft | 505 kts | 101° |
| 2026-05-06 23:08 | -5.61072 | -46.89634 | 39260 ft | 505 kts | 101° |
| 2026-05-06 23:09 | -5.62330 | -46.82708 | 39258 ft | 505 kts | 101° |
| 2026-05-06 23:09 | -5.63583 | -46.75805 | 39256 ft | 505 kts | 101° |
| 2026-05-06 23:10 | -5.64836 | -46.68898 | 39254 ft | 505 kts | 101° |
| 2026-05-06 23:10 | -5.66090 | -46.61990 | 39253 ft | 505 kts | 101° |
| 2026-05-06 23:11 | -5.67346 | -46.55067 | 39251 ft | 505 kts | 101° |
| 2026-05-06 23:11 | -5.68599 | -46.48160 | 39249 ft | 505 kts | 101° |
| 2026-05-06 23:12 | -5.69854 | -46.41257 | 39248 ft | 505 kts | 101° |
| 2026-05-06 23:12 | -5.71109 | -46.34320 | 39246 ft | 505 kts | 101° |
| 2026-05-06 23:13 | -5.72354 | -46.27409 | 39244 ft | 505 kts | 101° |
| 2026-05-06 23:13 | -5.73595 | -46.20514 | 39243 ft | 505 kts | 101° |
| 2026-05-06 23:14 | -5.74838 | -46.13599 | 39241 ft | 505 kts | 101° |
| 2026-05-06 23:14 | -5.76086 | -46.06656 | 39240 ft | 505 kts | 101° |
| 2026-05-06 23:15 | -5.77327 | -45.99750 | 39239 ft | 505 kts | 101° |
| 2026-05-06 23:15 | -5.78568 | -45.92841 | 39237 ft | 505 kts | 101° |
| 2026-05-06 23:16 | -5.79812 | -45.85906 | 39236 ft | 505 kts | 101° |
| 2026-05-06 23:16 | -5.81053 | -45.78990 | 39234 ft | 505 kts | 101° |
| 2026-05-06 23:17 | -5.82292 | -45.72081 | 39233 ft | 505 kts | 101° |
| 2026-05-06 23:17 | -5.83532 | -45.65163 | 39232 ft | 505 kts | 101° |
| 2026-05-06 23:18 | -5.84774 | -45.58231 | 39230 ft | 505 kts | 101° |
| 2026-05-06 23:18 | -5.86013 | -45.51314 | 39229 ft | 505 kts | 101° |
| 2026-05-06 23:19 | -5.87252 | -45.44398 | 39228 ft | 505 kts | 101° |
| 2026-05-06 23:19 | -5.88493 | -45.37465 | 39227 ft | 505 kts | 101° |
| 2026-05-06 23:20 | -5.89733 | -45.30543 | 39225 ft | 506 kts | 101° |
| 2026-05-06 23:20 | -5.91254 | -45.23707 | 39223 ft | 504 kts | 110° |
| 2026-05-06 23:21 | -5.94524 | -45.17561 | 39154 ft | 502 kts | 128° |
| 2026-05-06 23:21 | -5.96771 | -45.14864 | 39034 ft | 503 kts | 133° |
| 2026-05-06 23:21 | -5.99146 | -45.12297 | 38919 ft | 504 kts | 134° |
| 2026-05-06 23:22 | -6.03982 | -45.07228 | 38881 ft | 503 kts | 135° |
| 2026-05-06 23:22 | -6.08809 | -45.02199 | 39027 ft | 499 kts | 135° |
| 2026-05-06 23:22 | -6.11208 | -44.99700 | 39149 ft | 496 kts | 135° |
| 2026-05-06 23:23 | -6.13613 | -44.97195 | 39210 ft | 496 kts | 135° |
| 2026-05-06 23:23 | -6.18395 | -44.92214 | 39218 ft | 497 kts | 135° |
| 2026-05-06 23:24 | -6.23187 | -44.87224 | 39217 ft | 498 kts | 135° |
| 2026-05-06 23:24 | -6.27988 | -44.82225 | 39216 ft | 499 kts | 135° |
| 2026-05-06 23:25 | -6.33048 | -44.77446 | 39215 ft | 498 kts | 139° |
| 2026-05-06 23:25 | -6.38228 | -44.72810 | 39214 ft | 499 kts | 139° |
| 2026-05-06 23:26 | -6.43403 | -44.68194 | 39213 ft | 499 kts | 139° |
| 2026-05-06 23:26 | -6.48585 | -44.63573 | 39212 ft | 499 kts | 139° |
| 2026-05-06 23:27 | -6.53790 | -44.58930 | 39211 ft | 499 kts | 139° |
| 2026-05-06 23:27 | -6.58974 | -44.54304 | 39210 ft | 499 kts | 139° |
| 2026-05-06 23:28 | -6.64160 | -44.49676 | 39209 ft | 499 kts | 139° |
| 2026-05-06 23:28 | -6.69340 | -44.45051 | 39208 ft | 500 kts | 139° |
| 2026-05-06 23:29 | -6.74546 | -44.40404 | 39208 ft | 500 kts | 139° |
| 2026-05-06 23:29 | -6.79736 | -44.35770 | 39207 ft | 500 kts | 139° |
| 2026-05-06 23:30 | -6.84924 | -44.31138 | 39206 ft | 500 kts | 139° |
| 2026-05-06 23:30 | -6.90130 | -44.26490 | 39205 ft | 500 kts | 139° |
| 2026-05-06 23:31 | -6.95315 | -44.21862 | 39204 ft | 500 kts | 139° |
| 2026-05-06 23:31 | -7.00506 | -44.17227 | 39203 ft | 500 kts | 139° |
| 2026-05-06 23:32 | -7.05688 | -44.12596 | 39203 ft | 500 kts | 139° |
| 2026-05-06 23:32 | -7.10895 | -44.07942 | 39202 ft | 500 kts | 139° |
| 2026-05-06 23:33 | -7.16091 | -44.03299 | 39201 ft | 500 kts | 139° |
| 2026-05-06 23:33 | -7.21273 | -43.98667 | 39200 ft | 500 kts | 139° |
| 2026-05-06 23:34 | -7.26483 | -43.94012 | 39199 ft | 500 kts | 139° |
| 2026-05-06 23:34 | -7.31671 | -43.89373 | 39199 ft | 500 kts | 139° |
| 2026-05-06 23:35 | -7.36852 | -43.84732 | 39198 ft | 500 kts | 139° |
| 2026-05-06 23:35 | -7.42037 | -43.80086 | 39197 ft | 500 kts | 139° |
| 2026-05-06 23:36 | -7.47239 | -43.75423 | 39196 ft | 500 kts | 139° |
| 2026-05-06 23:36 | -7.52426 | -43.70774 | 39195 ft | 500 kts | 139° |
| 2026-05-06 23:37 | -7.57606 | -43.66130 | 39195 ft | 500 kts | 139° |
| 2026-05-06 23:37 | -7.62812 | -43.61462 | 39194 ft | 500 kts | 139° |
| 2026-05-06 23:38 | -7.67999 | -43.56811 | 39193 ft | 500 kts | 139° |
| 2026-05-06 23:38 | -7.73187 | -43.52162 | 39192 ft | 500 kts | 139° |
| 2026-05-06 23:39 | -7.78368 | -43.47513 | 39192 ft | 500 kts | 139° |
| 2026-05-06 23:39 | -7.83571 | -43.42838 | 39191 ft | 500 kts | 139° |
| 2026-05-06 23:40 | -7.88753 | -43.38179 | 39190 ft | 500 kts | 139° |
| 2026-05-06 23:40 | -7.93930 | -43.33525 | 39190 ft | 500 kts | 139° |
| 2026-05-06 23:41 | -7.99130 | -43.28847 | 39189 ft | 500 kts | 139° |
| 2026-05-06 23:41 | -8.04315 | -43.24182 | 39168 ft | 501 kts | 139° |
| 2026-05-06 23:41 | -8.06909 | -43.21847 | 39045 ft | 503 kts | 139° |
| 2026-05-06 23:42 | -8.09515 | -43.19502 | 38977 ft | 504 kts | 139° |
| 2026-05-06 23:42 | -8.14732 | -43.14804 | 38963 ft | 503 kts | 139° |
| 2026-05-06 23:43 | -8.19952 | -43.10104 | 38960 ft | 502 kts | 139° |
| 2026-05-06 23:43 | -8.25136 | -43.05433 | 38957 ft | 501 kts | 139° |
| 2026-05-06 23:44 | -8.30327 | -43.00756 | 38953 ft | 501 kts | 139° |
| 2026-05-06 23:44 | -8.35528 | -42.96068 | 38950 ft | 500 kts | 139° |
| 2026-05-06 23:45 | -8.40709 | -42.91396 | 38946 ft | 500 kts | 139° |
| 2026-05-06 23:45 | -8.45884 | -42.86729 | 38943 ft | 500 kts | 139° |
| 2026-05-06 23:46 | -8.51053 | -42.82065 | 39065 ft | 498 kts | 139° |
| 2026-05-06 23:46 | -8.56212 | -42.77410 | 39180 ft | 497 kts | 139° |
| 2026-05-06 23:47 | -8.61363 | -42.72761 | 39181 ft | 498 kts | 139° |
| 2026-05-06 23:47 | -8.66520 | -42.68106 | 39181 ft | 499 kts | 139° |
| 2026-05-06 23:48 | -8.71711 | -42.63419 | 39180 ft | 500 kts | 139° |
| 2026-05-06 23:48 | -8.76882 | -42.58749 | 39179 ft | 500 kts | 139° |
| 2026-05-06 23:49 | -8.82059 | -42.54075 | 39179 ft | 500 kts | 139° |
| 2026-05-06 23:49 | -8.87219 | -42.49416 | 39178 ft | 501 kts | 139° |
| 2026-05-06 23:50 | -8.92444 | -42.44697 | 39177 ft | 501 kts | 139° |
| 2026-05-06 23:50 | -9.00208 | -42.37661 | 39177 ft | 501 kts | 139° |
| 2026-05-06 23:51 | -9.05382 | -42.32969 | 39176 ft | 501 kts | 139° |
| 2026-05-06 23:51 | -9.10580 | -42.28254 | 39175 ft | 501 kts | 139° |
| 2026-05-06 23:52 | -9.15739 | -42.23572 | 39173 ft | 496 kts | 139° |
| 2026-05-06 23:52 | -9.20837 | -42.18944 | 39173 ft | 491 kts | 139° |
| 2026-05-06 23:53 | -9.25899 | -42.14347 | 39173 ft | 487 kts | 139° |
| 2026-05-06 23:53 | -9.30910 | -42.09795 | 39172 ft | 484 kts | 139° |
| 2026-05-06 23:54 | -9.35896 | -42.05265 | 39172 ft | 481 kts | 139° |
| 2026-05-06 23:54 | -9.40860 | -42.00753 | 39172 ft | 480 kts | 139° |
| 2026-05-06 23:55 | -9.45830 | -41.96235 | 39015 ft | 482 kts | 139° |
| 2026-05-06 23:55 | -9.48348 | -41.93946 | 38405 ft | 494 kts | 139° |
| 2026-05-06 23:55 | -9.50927 | -41.91602 | 37789 ft | 504 kts | 139° |
| 2026-05-06 23:56 | -9.53537 | -41.89229 | 37171 ft | 506 kts | 139° |
| 2026-05-06 23:56 | -9.56140 | -41.86861 | 36549 ft | 500 kts | 139° |
| 2026-05-06 23:56 | -9.58708 | -41.84524 | 35926 ft | 494 kts | 139° |
| 2026-05-06 23:56 | -9.61260 | -41.82202 | 35300 ft | 489 kts | 139° |
| 2026-05-06 23:57 | -9.63777 | -41.79910 | 34677 ft | 485 kts | 139° |
| 2026-05-06 23:57 | -9.66270 | -41.77641 | 34055 ft | 481 kts | 139° |
| 2026-05-06 23:57 | -9.68746 | -41.75387 | 33431 ft | 476 kts | 139° |
| 2026-05-06 23:57 | -9.71196 | -41.73157 | 32808 ft | 472 kts | 139° |
| 2026-05-06 23:58 | -9.73462 | -41.70790 | 32181 ft | 469 kts | 128° |
| 2026-05-06 23:58 | -9.75222 | -41.68027 | 31561 ft | 467 kts | 120° |
| 2026-05-06 23:58 | -9.76738 | -41.65129 | 30936 ft | 463 kts | 118° |
| 2026-05-06 23:58 | -9.78170 | -41.62229 | 30312 ft | 459 kts | 117° |
| 2026-05-06 23:59 | -9.79292 | -41.59231 | 29683 ft | 456 kts | 104° |
| 2026-05-06 23:59 | -9.79676 | -41.56077 | 29061 ft | 454 kts | 90° |
| 2026-05-06 23:59 | -9.79294 | -41.52932 | 28437 ft | 451 kts | 76° |
| 2026-05-06 23:59 | -9.78343 | -41.49925 | 27819 ft | 448 kts | 70° |
| 2026-05-07 00:00 | -9.77248 | -41.47000 | 27197 ft | 444 kts | 69° |
| 2026-05-07 00:00 | -9.76122 | -41.44091 | 26569 ft | 440 kts | 69° |
| 2026-05-07 00:00 | -9.75007 | -41.41229 | 25946 ft | 436 kts | 69° |
| 2026-05-07 00:00 | -9.74271 | -41.39343 | 25532 ft | 433 kts | 69° |
| 2026-05-07 00:01 | -9.72804 | -41.35585 | 24700 ft | 428 kts | 69° |
| 2026-05-07 00:01 | -9.71717 | -41.32801 | 24077 ft | 425 kts | 69° |
| 2026-05-07 00:01 | -9.70640 | -41.30040 | 23454 ft | 421 kts | 69° |
| 2026-05-07 00:01 | -9.69570 | -41.27301 | 22831 ft | 417 kts | 69° |
| 2026-05-07 00:02 | -9.68505 | -41.24570 | 22204 ft | 414 kts | 69° |
| 2026-05-07 00:02 | -9.67454 | -41.21878 | 21580 ft | 410 kts | 69° |
| 2026-05-07 00:02 | -9.66416 | -41.19216 | 20958 ft | 407 kts | 69° |
| 2026-05-07 00:02 | -9.65384 | -41.16570 | 20334 ft | 403 kts | 69° |
| 2026-05-07 00:03 | -9.64363 | -41.13951 | 19712 ft | 400 kts | 69° |
| 2026-05-07 00:03 | -9.63319 | -41.11366 | 19089 ft | 396 kts | 68° |
| 2026-05-07 00:03 | -9.62268 | -41.08807 | 18466 ft | 393 kts | 68° |
| 2026-05-07 00:03 | -9.61214 | -41.06251 | 17837 ft | 390 kts | 68° |
| 2026-05-07 00:04 | -9.60178 | -41.03738 | 17214 ft | 386 kts | 68° |
| 2026-05-07 00:04 | -9.59149 | -41.01245 | 16591 ft | 383 kts | 68° |
| 2026-05-07 00:04 | -9.58130 | -40.98774 | 15968 ft | 380 kts | 68° |
| 2026-05-07 00:04 | -9.57120 | -40.96324 | 15345 ft | 377 kts | 68° |
| 2026-05-07 00:05 | -9.56119 | -40.93898 | 14723 ft | 373 kts | 68° |
| 2026-05-07 00:05 | -9.55124 | -40.91486 | 14099 ft | 370 kts | 68° |
| 2026-05-07 00:05 | -9.54131 | -40.89077 | 13471 ft | 367 kts | 68° |
| 2026-05-07 00:05 | -9.53164 | -40.86734 | 13176 ft | 352 kts | 68° |
| 2026-05-07 00:06 | -9.52250 | -40.84519 | 13130 ft | 332 kts | 68° |
| 2026-05-07 00:06 | -9.51388 | -40.82429 | 13024 ft | 315 kts | 68° |
| 2026-05-07 00:06 | -9.50556 | -40.80410 | 12641 ft | 309 kts | 68° |
| 2026-05-07 00:06 | -9.49728 | -40.78412 | 12163 ft | 307 kts | 65° |
| 2026-05-07 00:07 | -9.48484 | -40.76689 | 11632 ft | 305 kts | 40° |
| 2026-05-07 00:07 | -9.46670 | -40.75730 | 11546 ft | 279 kts | 13° |
| 2026-05-07 00:07 | -9.44859 | -40.75426 | 11522 ft | 250 kts | 5° |
| 2026-05-07 00:07 | -9.43209 | -40.75315 | 11396 ft | 228 kts | 350° |
| 2026-05-07 00:08 | -9.41807 | -40.75900 | 10997 ft | 216 kts | 316° |
| 2026-05-07 00:08 | -9.41013 | -40.77121 | 10517 ft | 208 kts | 284° |
| 2026-05-07 00:08 | -9.40703 | -40.78540 | 10060 ft | 206 kts | 278° |
| 2026-05-07 00:08 | -9.40452 | -40.79959 | 9606 ft | 205 kts | 278° |
| 2026-05-07 00:09 | -9.40206 | -40.81378 | 9150 ft | 203 kts | 278° |
| 2026-05-07 00:09 | -9.39963 | -40.82779 | 8696 ft | 202 kts | 278° |
| 2026-05-07 00:09 | -9.39611 | -40.84142 | 8222 ft | 203 kts | 297° |
| 2026-05-07 00:09 | -9.38589 | -40.85115 | 7721 ft | 208 kts | 333° |
| 2026-05-07 00:10 | -9.37163 | -40.85292 | 7224 ft | 212 kts | 10° |
| 2026-05-07 00:10 | -9.35885 | -40.84593 | 6730 ft | 213 kts | 47° |
| 2026-05-07 00:10 | -9.35100 | -40.83340 | 6261 ft | 211 kts | 63° |
| 2026-05-07 00:10 | -9.34439 | -40.82008 | 5803 ft | 210 kts | 64° |
| 2026-05-07 00:11 | -9.33793 | -40.80691 | 5357 ft | 209 kts | 64° |
| 2026-05-07 00:11 | -9.33152 | -40.79383 | 4919 ft | 208 kts | 64° |
| 2026-05-07 00:11 | -9.32514 | -40.78079 | 4487 ft | 206 kts | 64° |
| 2026-05-07 00:11 | -9.31881 | -40.76785 | 4060 ft | 205 kts | 64° |
| 2026-05-07 00:12 | -9.31326 | -40.75473 | 3719 ft | 200 kts | 82° |
| 2026-05-07 00:12 | -9.31408 | -40.74169 | 3668 ft | 173 kts | 104° |
| 2026-05-07 00:12 | -9.31636 | -40.73062 | 3612 ft | 149 kts | 103° |
| 2026-05-07 00:12 | -9.31847 | -40.72071 | 3358 ft | 142 kts | 104° |
| 2026-05-07 00:13 | -9.32052 | -40.71108 | 3065 ft | 138 kts | 104° |
| 2026-05-07 00:13 | -9.32255 | -40.70156 | 2985 ft | 141 kts | 104° |
| 2026-05-07 00:13 | -9.32464 | -40.69181 | 2981 ft | 142 kts | 104° |
| 2026-05-07 00:13 | -9.32672 | -40.68208 | 2975 ft | 140 kts | 104° |
| 2026-05-07 00:14 | -9.32878 | -40.67249 | 2976 ft | 140 kts | 104° |
| 2026-05-07 00:14 | -9.33086 | -40.66278 | 2978 ft | 140 kts | 104° |
| 2026-05-07 00:14 | -9.33342 | -40.65356 | 2773 ft | 135 kts | 110° |
| 2026-05-07 00:14 | -9.33653 | -40.64449 | 2394 ft | 138 kts | 110° |
| 2026-05-07 00:15 | -9.33969 | -40.63533 | 2040 ft | 138 kts | 110° |
| 2026-05-07 00:15 | -9.34288 | -40.62608 | 1848 ft | 140 kts | 110° |
| 2026-05-07 00:15 | -9.34612 | -40.61671 | 1827 ft | 142 kts | 110° |
| 2026-05-07 00:15 | -9.34933 | -40.60740 | 1822 ft | 140 kts | 111° |
| 2026-05-07 00:16 | -9.35256 | -40.59800 | 1729 ft | 139 kts | 110° |
| 2026-05-07 00:16 | -9.35569 | -40.58879 | 1528 ft | 139 kts | 110° |
| 2026-05-07 00:16 | -9.35883 | -40.57957 | 1333 ft | 136 kts | 110° |
| 2026-05-07 00:16 | -9.36175 | -40.57129 | 1269 ft | 108 kts | 110° |
| 2026-05-07 00:17 | -9.36377 | -40.56547 | 1272 ft | 69 kts | 109° |
| 2026-05-07 00:17 | -9.36493 | -40.56207 | 1273 ft | 35 kts | 109° |
| 2026-05-07 00:17 | -9.36556 | -40.56032 | 1273 ft | 23 kts | 108° |
| 2026-05-07 00:17 | -9.36645 | -40.55957 | 1273 ft | 16 kts | 201° |
| 2026-05-07 00:18 | -9.36695 | -40.55977 | 1273 ft | 0 kts | 201° |
| 2026-05-07 00:19 | -9.36717 | -40.55990 | 1273 ft | 8 kts | 225° |
| 2026-05-07 00:19 | -9.36713 | -40.56074 | 1273 ft | 17 kts | 288° |
| 2026-05-07 00:19 | -9.36664 | -40.56220 | 1272 ft | 24 kts | 288° |
| 2026-05-07 00:20 | -9.36614 | -40.56368 | 1272 ft | 20 kts | 288° |
| 2026-05-07 00:20 | -9.36581 | -40.56478 | 1272 ft | 8 kts | 264° |
| 2026-05-07 00:20 | -9.36603 | -40.56497 | 1272 ft | 1 kts | 199° |
| 2026-05-07 00:20 | -9.36607 | -40.56498 | 1272 ft | 3 kts | 199° |
| 2026-05-07 00:21 | -9.36612 | -40.56500 | 1272 ft | 0 kts | 199° |